createdAt,value
2019-03-15T00:01:40.588Z,6.07
2019-03-15T00:04:10.128Z,7.83
2019-03-15T00:06:39.306Z,13.10
2019-03-15T00:09:16.528Z,8.27
2019-03-15T00:11:45.718Z,11.10
2019-03-15T00:14:15.063Z,13.13
2019-03-15T00:16:44.248Z,11.33
2019-03-15T00:19:13.452Z,9.97
2019-03-15T00:21:42.674Z,12.67
2019-03-15T00:24:11.856Z,11.37
2019-03-15T00:26:41.038Z,11.83
2019-03-15T00:29:10.246Z,12.23
2019-03-15T00:31:39.438Z,10.07
2019-03-15T00:34:08.634Z,15.50
2019-03-15T00:36:37.816Z,12.43
2019-03-15T00:39:07.002Z,11.40
2019-03-15T00:41:36.172Z,13.67
2019-03-15T00:44:05.423Z,14.03
2019-03-15T00:46:34.620Z,13.03
2019-03-15T00:49:03.811Z,9.03
2019-03-15T00:51:32.976Z,11.83
2019-03-15T00:54:02.151Z,9.10
2019-03-15T00:56:31.330Z,9.07
2019-03-15T00:59:00.522Z,7.43
2019-03-15T01:01:29.696Z,14.13
2019-03-15T01:03:58.899Z,10.47
2019-03-15T01:06:28.090Z,15.70
2019-03-15T01:08:57.263Z,12.50
2019-03-15T01:11:26.457Z,19.80
2019-03-15T01:13:55.636Z,24.00
2019-03-15T01:16:24.831Z,15.27
2019-03-15T01:18:54.053Z,15.07
2019-03-15T01:21:23.198Z,15.43
2019-03-15T01:23:52.383Z,15.27
2019-03-15T01:26:21.573Z,17.53
2019-03-15T01:28:50.761Z,17.07
2019-03-15T01:31:20.110Z,16.53
2019-03-15T01:33:49.215Z,14.00
2019-03-15T01:36:18.411Z,14.13
2019-03-15T01:38:47.730Z,10.47
2019-03-15T01:41:16.951Z,21.20
2019-03-15T01:43:46.040Z,16.17
2019-03-15T01:46:15.226Z,12.57
2019-03-15T01:48:44.419Z,11.70
2019-03-15T01:51:13.630Z,24.60
2019-03-15T01:53:42.885Z,16.80
2019-03-15T01:56:12.041Z,13.13
2019-03-15T01:58:41.237Z,17.50
2019-03-15T02:01:10.405Z,17.20
2019-03-15T02:03:39.785Z,17.03
2019-03-15T02:06:08.950Z,12.10
2019-03-15T02:08:38.133Z,11.23
2019-03-15T02:11:07.321Z,18.60
2019-03-15T02:13:36.497Z,18.93
2019-03-15T02:16:05.770Z,21.90
2019-03-15T02:18:34.974Z,13.47
2019-03-15T02:21:06.004Z,17.20
2019-03-15T02:23:35.128Z,19.23
2019-03-15T02:26:04.316Z,19.70
2019-03-15T02:28:33.491Z,15.10
2019-03-15T02:31:02.673Z,12.27
2019-03-15T02:33:33.430Z,16.07
2019-03-15T02:36:03.008Z,13.67
2019-03-15T02:38:32.205Z,17.77
2019-03-15T02:41:01.381Z,15.40
2019-03-15T02:43:30.579Z,17.53
2019-03-15T02:45:59.997Z,15.43
2019-03-15T02:48:29.169Z,14.70
2019-03-15T02:50:58.461Z,17.73
2019-03-15T02:53:27.640Z,13.70
2019-03-15T02:55:59.238Z,20.37
2019-03-15T02:58:28.421Z,22.87
2019-03-15T03:00:57.674Z,17.97
2019-03-15T03:03:26.842Z,16.37
2019-03-15T03:05:56.306Z,20.53
2019-03-15T03:08:25.480Z,14.07
2019-03-15T03:10:55.934Z,15.90
2019-03-15T03:13:25.955Z,19.07
2019-03-15T03:15:55.134Z,15.73
2019-03-15T03:18:24.347Z,16.63
2019-03-15T03:20:53.539Z,19.67
2019-03-15T03:23:22.720Z,14.40
2019-03-15T03:25:51.895Z,18.93
2019-03-15T03:28:21.081Z,17.57
2019-03-15T03:30:50.285Z,16.70
2019-03-15T03:33:19.450Z,18.87
2019-03-15T03:35:48.632Z,14.40
2019-03-15T03:38:17.816Z,12.83
2019-03-15T03:40:47.006Z,14.87
2019-03-15T03:43:16.321Z,14.53
2019-03-15T03:45:45.571Z,17.67
2019-03-15T03:48:15.949Z,15.30
2019-03-15T03:50:45.297Z,11.97
2019-03-15T03:53:32.470Z,9.73
2019-03-15T03:56:01.669Z,8.47
2019-03-15T03:58:30.903Z,9.90
2019-03-15T04:01:00.125Z,8.17
2019-03-15T04:03:29.382Z,9.93
2019-03-15T04:05:58.559Z,12.13
2019-03-15T04:08:27.740Z,10.87
2019-03-15T04:10:56.941Z,4.23
2019-03-15T04:13:26.185Z,7.10
2019-03-15T04:16:13.467Z,10.47
2019-03-15T04:18:42.651Z,12.20
2019-03-15T04:21:11.829Z,6.57
2019-03-15T04:23:41.058Z,10.43
2019-03-15T04:26:10.210Z,8.90
2019-03-15T04:28:39.392Z,8.17
2019-03-15T04:31:08.599Z,9.53
2019-03-15T04:33:37.751Z,6.50
2019-03-15T04:36:06.984Z,5.53
2019-03-15T04:38:36.134Z,9.80
2019-03-15T04:41:05.306Z,7.87
2019-03-15T04:43:34.498Z,8.10
2019-03-15T04:46:03.673Z,9.13
2019-03-15T04:48:32.859Z,9.23
2019-03-15T04:51:02.078Z,13.83
2019-03-15T04:53:31.249Z,13.63
2019-03-15T04:56:00.419Z,11.50
2019-03-15T04:58:29.603Z,12.83
2019-03-15T05:00:58.789Z,12.57
2019-03-15T05:03:27.985Z,9.97
2019-03-15T05:06:03.205Z,13.53
2019-03-15T05:08:29.151Z,10.17
2019-03-15T05:10:58.408Z,12.57
2019-03-15T05:13:27.579Z,19.10
2019-03-15T05:15:56.755Z,13.27
2019-03-15T05:18:25.940Z,19.23
2019-03-15T05:20:55.144Z,9.53
2019-03-15T05:23:24.322Z,13.03
2019-03-15T05:25:53.489Z,15.33
2019-03-15T05:28:22.681Z,10.67
2019-03-15T05:30:51.894Z,9.90
2019-03-15T05:33:21.071Z,17.90
2019-03-15T05:35:50.240Z,11.87
2019-03-15T05:38:19.416Z,8.43
2019-03-15T05:40:48.603Z,15.47
2019-03-15T05:43:17.812Z,15.90
2019-03-15T05:45:47.002Z,15.87
2019-03-15T05:48:16.184Z,9.17
2019-03-15T05:50:45.387Z,8.80
2019-03-15T05:53:14.580Z,15.43
2019-03-15T05:55:43.769Z,12.70
2019-03-15T05:58:12.974Z,13.20
2019-03-15T06:00:42.471Z,19.47
2019-03-15T06:03:12.716Z,10.77
2019-03-15T06:05:59.844Z,11.97
2019-03-15T06:08:29.040Z,9.47
2019-03-15T06:10:59.552Z,14.27
2019-03-15T06:13:28.752Z,11.27
2019-03-15T06:15:57.952Z,9.83
2019-03-15T06:18:27.169Z,10.30
2019-03-15T06:20:56.327Z,9.37
2019-03-15T06:23:25.507Z,8.87
2019-03-15T06:25:54.699Z,14.17
2019-03-15T06:28:23.864Z,8.73
2019-03-15T06:30:53.043Z,7.97
2019-03-15T06:33:22.233Z,8.03
2019-03-15T06:35:51.404Z,9.37
2019-03-15T06:38:20.619Z,10.93
2019-03-15T06:40:49.811Z,9.13
2019-03-15T06:43:18.985Z,11.70
2019-03-15T06:45:48.165Z,10.97
2019-03-15T06:48:17.338Z,16.20
2019-03-15T06:50:46.675Z,12.70
2019-03-15T06:53:15.856Z,13.67
2019-03-15T06:55:45.055Z,8.40
2019-03-15T06:58:14.247Z,13.53
2019-03-15T07:00:43.439Z,10.20
2019-03-15T07:03:15.712Z,9.40
2019-03-15T07:05:44.842Z,14.80
2019-03-15T07:08:14.060Z,8.23
2019-03-15T07:10:44.405Z,9.30
2019-03-15T07:13:13.685Z,10.43
2019-03-15T07:15:44.379Z,11.93
2019-03-15T07:18:13.854Z,15.70
2019-03-15T07:20:43.086Z,15.60
2019-03-15T07:23:12.262Z,15.77
2019-03-15T07:25:41.449Z,19.37
2019-03-15T07:28:10.712Z,16.97
2019-03-15T07:30:39.921Z,19.70
2019-03-15T07:33:09.201Z,16.87
2019-03-15T07:35:38.455Z,12.43
2019-03-15T07:38:07.645Z,22.83
2019-03-15T07:40:36.841Z,18.23
2019-03-15T07:43:06.009Z,9.83
2019-03-15T07:45:35.188Z,17.83
2019-03-15T07:48:04.449Z,12.53
2019-03-15T07:50:33.651Z,13.60
2019-03-15T07:53:02.870Z,14.80
2019-03-15T07:55:32.070Z,18.83
2019-03-15T07:58:01.263Z,15.40
2019-03-15T08:00:30.451Z,13.23
2019-03-15T08:02:59.683Z,13.83
2019-03-15T08:05:28.872Z,18.77
2019-03-15T08:07:58.041Z,17.03
2019-03-15T08:10:27.223Z,17.50
2019-03-15T08:12:56.422Z,14.87
2019-03-15T08:15:25.748Z,16.37
2019-03-15T08:17:54.943Z,16.63
2019-03-15T08:20:24.130Z,17.03
2019-03-15T08:22:53.391Z,15.23
2019-03-15T08:25:22.599Z,18.63
2019-03-15T08:27:51.791Z,19.60
2019-03-15T08:30:20.982Z,15.50
2019-03-15T08:32:50.173Z,17.57
2019-03-15T08:35:19.353Z,20.77
2019-03-15T08:37:48.916Z,15.57
2019-03-15T08:40:18.920Z,23.53
2019-03-15T08:42:48.273Z,19.67
2019-03-15T08:45:21.531Z,17.97
2019-03-15T08:47:50.715Z,16.43
2019-03-15T08:50:20.671Z,18.17
2019-03-15T08:52:49.871Z,20.07
2019-03-15T08:55:19.068Z,18.37
2019-03-15T08:57:48.256Z,30.97
2019-03-15T09:00:18.540Z,20.27
2019-03-15T09:02:47.741Z,21.60
2019-03-15T09:05:17.461Z,17.40
2019-03-15T09:07:46.643Z,18.43
2019-03-15T09:10:23.070Z,21.20
2019-03-15T09:12:48.147Z,20.17
2019-03-15T09:15:17.525Z,19.37
2019-03-15T09:17:46.725Z,26.93
2019-03-15T09:20:16.463Z,16.83
2019-03-15T09:22:45.915Z,19.13
2019-03-15T09:25:20.505Z,19.43
2019-03-15T09:27:49.679Z,16.53
2019-03-15T09:30:23.688Z,18.00
2019-03-15T09:32:49.805Z,21.20
2019-03-15T09:35:18.983Z,17.20
2019-03-15T09:37:48.169Z,16.73
2019-03-15T09:40:17.426Z,16.90
2019-03-15T09:42:46.672Z,15.77
2019-03-15T09:45:17.223Z,14.53
2019-03-15T09:47:46.617Z,22.80
2019-03-15T09:50:26.492Z,25.77
2019-03-15T09:52:47.717Z,15.43
2019-03-15T09:55:16.850Z,19.97
2019-03-15T09:57:46.070Z,15.13
2019-03-15T10:00:18.988Z,17.87
2019-03-15T10:02:48.317Z,15.37
2019-03-15T10:05:17.577Z,16.10
2019-03-15T10:07:46.802Z,17.97
2019-03-15T10:10:20.098Z,24.33
2019-03-15T10:12:49.316Z,15.70
2019-03-15T10:15:18.681Z,15.63
2019-03-15T10:17:47.863Z,17.00
2019-03-15T10:20:17.106Z,10.90
2019-03-15T10:23:04.006Z,13.00
2019-03-15T10:25:17.781Z,18.73
2019-03-15T10:27:46.961Z,17.73
2019-03-15T10:30:20.007Z,17.23
2019-03-15T10:32:49.410Z,13.30
2019-03-15T10:35:18.745Z,16.97
2019-03-15T10:37:47.914Z,25.83
2019-03-15T10:40:24.324Z,19.60
2019-03-15T10:42:55.463Z,23.60
2019-03-15T10:45:25.148Z,15.23
2019-03-15T10:47:54.290Z,18.97
2019-03-15T10:50:23.506Z,16.97
2019-03-15T10:52:53.904Z,15.47
2019-03-15T10:55:23.459Z,19.20
2019-03-15T10:57:52.762Z,19.07
2019-03-15T11:00:22.178Z,16.67
2019-03-15T11:02:51.486Z,20.27
2019-03-15T11:05:20.666Z,19.47
2019-03-15T11:07:49.854Z,13.83
2019-03-15T11:10:19.038Z,19.33
2019-03-15T11:12:48.211Z,12.47
2019-03-15T11:15:17.570Z,16.03
2019-03-15T11:17:46.759Z,15.83
2019-03-15T11:20:15.927Z,16.27
2019-03-15T11:22:45.136Z,13.10
2019-03-15T11:25:14.337Z,12.13
2019-03-15T11:27:43.554Z,11.33
2019-03-15T11:30:15.814Z,13.17
2019-03-15T11:32:45.010Z,15.53
2019-03-15T11:35:14.197Z,13.17
2019-03-15T11:37:43.389Z,12.07
2019-03-15T11:40:14.863Z,14.40
2019-03-15T11:42:44.043Z,10.37
2019-03-15T11:45:14.757Z,16.27
2019-03-15T11:48:02.064Z,16.33
2019-03-15T11:50:16.750Z,9.80
2019-03-15T11:52:45.963Z,13.10
2019-03-15T11:55:15.318Z,15.13
2019-03-15T11:57:45.396Z,12.47
2019-03-15T12:00:18.521Z,12.83
2019-03-15T12:02:47.709Z,9.50
2019-03-15T12:05:16.908Z,16.33
2019-03-15T12:07:46.106Z,12.77
2019-03-15T12:10:16.198Z,11.20
2019-03-15T12:12:45.437Z,18.03
2019-03-15T12:15:16.701Z,19.50
2019-03-15T12:17:45.878Z,13.03
2019-03-15T12:20:33.388Z,8.43
2019-03-15T12:23:20.603Z,14.43
2019-03-15T12:26:10.129Z,19.43
2019-03-15T12:28:39.393Z,14.63
2019-03-15T12:31:08.577Z,18.03
2019-03-15T12:33:37.765Z,15.20
2019-03-15T12:36:06.964Z,18.00
2019-03-15T12:38:36.160Z,17.43
2019-03-15T12:41:05.352Z,25.03
2019-03-15T12:43:34.523Z,18.57
2019-03-15T12:46:03.722Z,18.97
2019-03-15T12:48:32.915Z,13.90
2019-03-15T12:51:02.094Z,22.97
2019-03-15T12:53:31.281Z,13.13
2019-03-15T12:56:00.550Z,18.57
2019-03-15T12:58:29.740Z,19.97
2019-03-15T13:00:58.924Z,18.20
2019-03-15T13:03:28.111Z,18.50
2019-03-15T13:05:57.290Z,24.13
2019-03-15T13:08:26.490Z,19.17
2019-03-15T13:10:55.697Z,21.90
2019-03-15T13:13:24.842Z,21.33
2019-03-15T13:15:54.055Z,18.97
2019-03-15T13:18:23.267Z,19.80
2019-03-15T13:20:52.484Z,16.53
2019-03-15T13:23:21.659Z,18.60
2019-03-15T13:25:50.852Z,28.60
2019-03-15T13:28:20.056Z,26.87
2019-03-15T13:30:49.255Z,19.57
2019-03-15T13:33:20.740Z,27.60
2019-03-15T13:35:49.302Z,26.57
2019-03-15T13:38:18.483Z,27.00
2019-03-15T13:40:47.669Z,29.53
2019-03-15T13:43:16.855Z,14.53
2019-03-15T13:45:46.175Z,20.60
2019-03-15T13:48:15.362Z,18.50
2019-03-15T13:50:44.542Z,21.03
2019-03-15T13:53:13.774Z,23.37
2019-03-15T13:55:42.951Z,18.30
2019-03-15T13:58:12.159Z,17.63
2019-03-15T14:00:41.340Z,20.67
2019-03-15T14:03:10.523Z,19.13
2019-03-15T14:05:39.712Z,19.53
2019-03-15T14:08:11.950Z,19.57
2019-03-15T14:10:49.277Z,13.80
2019-03-15T14:13:12.164Z,22.60
2019-03-15T14:15:41.438Z,21.43
2019-03-15T14:18:10.643Z,19.07
2019-03-15T14:20:39.828Z,18.27
2019-03-15T14:23:09.032Z,27.63
2019-03-15T14:25:38.217Z,16.67
2019-03-15T14:28:07.402Z,18.57
2019-03-15T14:30:36.666Z,22.43
2019-03-15T14:33:05.844Z,25.77
2019-03-15T14:35:35.068Z,28.23
2019-03-15T14:38:04.506Z,24.13
2019-03-15T14:40:33.732Z,25.47
2019-03-15T14:43:02.916Z,25.20
2019-03-15T14:45:32.256Z,23.83
2019-03-15T14:48:01.386Z,32.10
2019-03-15T14:50:30.570Z,30.93
2019-03-15T14:52:59.753Z,18.63
2019-03-15T14:55:28.952Z,35.17
2019-03-15T14:58:00.247Z,29.13
2019-03-15T15:00:29.109Z,31.67
2019-03-15T15:03:16.406Z,23.50
2019-03-15T15:05:47.291Z,27.70
2019-03-15T15:08:16.691Z,26.13
2019-03-15T15:10:45.879Z,28.67
2019-03-15T15:13:15.060Z,26.83
2019-03-15T15:15:44.326Z,24.17
2019-03-15T15:18:13.564Z,27.63
2019-03-15T15:20:42.741Z,18.83
2019-03-15T15:23:11.912Z,24.50
2019-03-15T15:25:41.186Z,21.70
2019-03-15T15:28:10.374Z,29.10
2019-03-15T15:30:39.603Z,25.37
2019-03-15T15:33:08.804Z,24.50
2019-03-15T15:35:37.921Z,27.20
2019-03-15T15:38:07.103Z,27.27
2019-03-15T15:40:36.292Z,31.07
2019-03-15T15:43:05.504Z,31.33
2019-03-15T15:45:34.706Z,23.93
2019-03-15T15:48:03.896Z,25.23
2019-03-15T15:50:33.086Z,24.77
2019-03-15T15:53:02.293Z,25.10
2019-03-15T15:55:31.504Z,17.43
2019-03-15T15:58:00.688Z,28.03
2019-03-15T16:00:29.887Z,20.27
2019-03-15T16:02:59.086Z,20.00
2019-03-15T16:05:28.267Z,23.83
2019-03-15T16:07:57.488Z,20.53
2019-03-15T16:10:26.681Z,22.43
2019-03-15T16:12:55.867Z,13.80
2019-03-15T16:15:25.068Z,14.60
2019-03-15T16:17:54.261Z,16.20
2019-03-15T16:20:23.467Z,20.63
2019-03-15T16:22:52.653Z,18.23
2019-03-15T16:25:21.838Z,27.70
2019-03-15T16:27:51.036Z,25.17
2019-03-15T16:30:22.917Z,21.83
2019-03-15T16:32:52.117Z,19.13
2019-03-15T16:35:21.307Z,21.40
2019-03-15T16:37:50.494Z,23.77
2019-03-15T16:40:19.683Z,19.03
2019-03-15T16:42:48.909Z,18.63
2019-03-15T16:45:23.932Z,24.83
2019-03-15T16:47:53.136Z,24.50
2019-03-15T16:50:22.392Z,24.70
2019-03-15T16:52:51.592Z,21.63
2019-03-15T16:55:20.770Z,31.90
2019-03-15T16:57:50.068Z,28.57
2019-03-15T17:00:19.317Z,26.43
2019-03-15T17:02:48.500Z,25.43
2019-03-15T17:05:17.688Z,23.17
2019-03-15T17:07:46.893Z,29.27
2019-03-15T17:10:17.625Z,21.50
2019-03-15T17:12:46.824Z,25.97
2019-03-15T17:15:20.981Z,21.97
2019-03-15T17:17:50.320Z,25.13
2019-03-15T17:20:19.551Z,20.43
2019-03-15T17:22:48.760Z,20.73
2019-03-15T17:25:18.020Z,20.07
2019-03-15T17:27:47.198Z,24.77
2019-03-15T17:30:18.188Z,17.47
2019-03-15T17:32:48.878Z,20.60
2019-03-15T17:35:20.268Z,17.43
2019-03-15T17:37:49.550Z,20.27
2019-03-15T17:40:19.894Z,18.07
2019-03-15T17:42:49.131Z,24.83
2019-03-15T17:45:18.485Z,15.43
2019-03-15T17:47:48.002Z,20.27
2019-03-15T17:50:22.975Z,17.87
2019-03-15T17:52:52.185Z,14.37
2019-03-15T17:55:21.431Z,13.10
2019-03-15T17:57:50.604Z,23.27
2019-03-15T18:00:45.162Z,15.00
2019-03-15T18:03:21.441Z,15.70
2019-03-15T18:05:45.802Z,15.87
2019-03-15T18:08:14.986Z,12.97
2019-03-15T18:10:44.308Z,17.90
2019-03-15T18:13:13.490Z,15.93
2019-03-15T18:16:00.791Z,17.90
2019-03-15T18:18:48.032Z,14.93
2019-03-15T18:21:17.389Z,16.33
2019-03-15T18:23:46.609Z,19.67
2019-03-15T18:26:15.792Z,14.80
2019-03-15T18:28:45.129Z,16.67
2019-03-15T18:31:14.340Z,13.40
2019-03-15T18:33:43.609Z,10.47
2019-03-15T18:36:12.768Z,13.63
2019-03-15T18:38:41.945Z,18.23
2019-03-15T18:41:11.130Z,11.60
2019-03-15T18:43:40.331Z,9.30
2019-03-15T18:46:09.506Z,13.63
2019-03-15T18:48:38.691Z,10.27
2019-03-15T18:51:07.899Z,13.27
2019-03-15T18:53:37.091Z,11.30
2019-03-15T18:56:06.288Z,10.67
2019-03-15T18:58:35.502Z,11.87
2019-03-15T19:01:04.671Z,9.90
2019-03-15T19:03:36.643Z,8.30
2019-03-15T19:06:05.833Z,11.13
2019-03-15T19:08:35.014Z,12.37
2019-03-15T19:11:04.333Z,10.50
2019-03-15T19:13:33.530Z,13.83
2019-03-15T19:16:02.718Z,11.73
2019-03-15T19:18:31.898Z,10.47
2019-03-15T19:21:01.114Z,16.13
2019-03-15T19:23:30.315Z,10.10
2019-03-15T19:25:59.477Z,11.93
2019-03-15T19:28:28.656Z,13.00
2019-03-15T19:30:57.835Z,10.93
2019-03-15T19:33:27.040Z,16.63
2019-03-15T19:35:56.220Z,12.10
2019-03-15T19:38:25.413Z,14.90
2019-03-15T19:40:54.773Z,8.73
2019-03-15T19:43:23.953Z,13.53
2019-03-15T19:45:53.165Z,13.50
2019-03-15T19:48:22.347Z,26.43
2019-03-15T19:50:51.544Z,14.73
2019-03-15T19:53:20.712Z,9.93
2019-03-15T19:55:49.914Z,16.27
2019-03-15T19:58:19.097Z,9.97
2019-03-15T20:00:48.278Z,17.53
2019-03-15T20:03:17.460Z,12.53
2019-03-15T20:05:46.726Z,8.80
2019-03-15T20:08:15.903Z,14.33
2019-03-15T20:10:45.123Z,14.23
2019-03-15T20:13:14.315Z,16.93
2019-03-15T20:15:43.984Z,16.23
2019-03-15T20:18:13.163Z,7.73
2019-03-15T20:20:42.340Z,9.20
2019-03-15T20:23:11.594Z,17.73
2019-03-15T20:25:40.711Z,12.27
2019-03-15T20:28:09.900Z,12.33
2019-03-15T20:30:51.208Z,19.83
2019-03-15T20:33:10.009Z,13.67
2019-03-15T20:35:39.252Z,18.73
2019-03-15T20:38:08.421Z,14.23
2019-03-15T20:40:37.614Z,16.03
2019-03-15T20:43:06.798Z,15.47
2019-03-15T20:45:36.333Z,16.83
2019-03-15T20:48:05.688Z,17.87
2019-03-15T20:50:46.071Z,14.77
2019-03-15T20:53:09.718Z,14.30
2019-03-15T20:55:36.778Z,13.93
2019-03-15T20:58:06.052Z,17.43
2019-03-15T21:00:36.340Z,16.63
2019-03-15T21:03:05.747Z,12.00
2019-03-15T21:05:34.933Z,13.87
2019-03-15T21:08:04.117Z,10.63
2019-03-15T21:10:33.304Z,12.60
2019-03-15T21:13:02.501Z,14.77
2019-03-15T21:15:31.695Z,12.23
2019-03-15T21:18:00.868Z,13.63
2019-03-15T21:20:30.061Z,8.77
2019-03-15T21:22:59.305Z,11.17
2019-03-15T21:25:28.459Z,13.10
2019-03-15T21:27:57.660Z,11.03
2019-03-15T21:30:27.467Z,12.20
2019-03-15T21:32:56.667Z,12.50
2019-03-15T21:35:25.835Z,9.93
2019-03-15T21:37:55.479Z,9.50
2019-03-15T21:40:24.665Z,9.43
2019-03-15T21:42:53.863Z,10.27
2019-03-15T21:45:23.052Z,15.33
2019-03-15T21:47:52.221Z,8.13
2019-03-15T21:50:39.339Z,6.47
2019-03-15T21:53:26.688Z,5.57
2019-03-15T21:56:01.409Z,8.90
2019-03-15T21:58:30.668Z,7.60
2019-03-15T22:01:02.620Z,6.57
2019-03-15T22:03:30.744Z,6.50
2019-03-15T22:06:00.083Z,7.00
2019-03-15T22:08:29.293Z,5.97
2019-03-15T22:10:58.471Z,8.17
2019-03-15T22:13:27.693Z,5.53
2019-03-15T22:15:56.875Z,6.50
2019-03-15T22:18:26.037Z,6.57
2019-03-15T22:20:55.257Z,9.97
2019-03-15T22:23:24.424Z,8.93
2019-03-15T22:25:53.619Z,8.80
2019-03-15T22:28:22.812Z,10.87
2019-03-15T22:30:52.228Z,8.07
2019-03-15T22:33:21.453Z,7.43
2019-03-15T22:35:50.699Z,7.73
2019-03-15T22:38:26.201Z,11.17
2019-03-15T22:41:08.524Z,3.90
2019-03-15T22:43:37.781Z,7.23
2019-03-15T22:46:06.960Z,4.30
2019-03-15T22:48:36.122Z,5.53
2019-03-15T22:51:05.329Z,5.87
2019-03-15T22:53:34.523Z,7.67
2019-03-15T22:56:03.702Z,5.00
2019-03-15T22:58:32.896Z,10.37
2019-03-15T23:01:02.261Z,5.03
2019-03-15T23:03:31.506Z,7.40
2019-03-15T23:06:00.641Z,7.50
2019-03-15T23:08:29.815Z,4.60
2019-03-15T23:10:59.007Z,8.97
2019-03-15T23:13:29.111Z,11.77
2019-03-15T23:15:58.400Z,8.63
2019-03-15T23:18:27.568Z,9.93
2019-03-15T23:20:56.748Z,6.73
2019-03-15T23:23:25.932Z,5.73
2019-03-15T23:25:55.101Z,9.50
2019-03-15T23:28:24.322Z,5.10
2019-03-15T23:30:53.512Z,5.20
2019-03-15T23:33:22.884Z,7.93
2019-03-15T23:35:54.257Z,6.70
2019-03-15T23:38:22.955Z,5.83
2019-03-15T23:40:52.438Z,12.40
2019-03-15T23:43:21.617Z,7.60
2019-03-15T23:45:50.800Z,6.80
2019-03-15T23:48:19.993Z,7.67
2019-03-15T23:50:49.168Z,7.07
2019-03-15T23:53:18.388Z,9.03
2019-03-15T23:55:47.550Z,3.57
2019-03-15T23:58:16.740Z,6.50
